الصفحة الرئيسية
METAR-TAF:

METAR-TAF

مطار :

مطار الرشيدية مولاي علي الشريف

الراشيدية, المغرب

دائرة عرض: 31-56N, خط طول: 004-24W, ارتفاع: 1034 متر

مراقبة الطقس الحالي

تاريخ ووقت الإصدار 58 دقيقة قبل الساعة 11:00UTC
رياح هادئة
درجة الحرارة 22°درجة مئوية
الرطوبة 23%
ضغط 1028 hPa
الرؤية 10 كم أو أكثر
الغيوم لا تقل 1500 م ولا وجود لمزنة ركامية السحاب الأسود

METAR: GMFK 261100Z 00000KT CAVOK 22/00 Q1028 NOSIG

زمن: 12:58 (11:58 UTC)

توقعات

تاريخ ووقت الإصدار 58 دقيقة قبل الساعة 11:00UTC
التوقعات صالحة من26 الساعة 12 UTC إلى 27 الساعة 18 UTC
ريح 7 عقدة من الجنوب
الرؤية 10 كم أو أكثر
الغيوم لا تقل 1500 م ولا وجود لمزنة ركامية السحاب الأسود
نظرية الاحتمالات 30% :
مؤقت
من 26 الساعة 18 UTC إلى 27 الساعة 01 UTC
ريح 13 عقدة من الشمال

TAF: GMFK 261100Z 2612/2718 18007KT CAVOK PROB30 TEMPO 2618/2701 36013KT

أرصاد الطقس والتوقعات من أكثر من 4000 مطار (تقارير الطقس للمطار METAR والتنبؤ بالطقس بالمطارTAF).

المحطات المتاحة هي النقط الصفراء والحمراء على الخريطة.

حرك المؤشر فوق النقطة لمعرفة اسم المحطة.

ثم انقر لمعرفة أرصاد وتوقعات الطقس.

لتغيير الخارطة: اضغط على الأزرار الخضراء مع رمز الصليب الأسود للتكبير. على الزر الأخضر مع شرطة للتصغير، أو على الأسهم الخضراء للخرائط المجاورة.


METAR-TAF: